createdAt,value
2019-02-23T00:02:02.943Z,4.43
2019-02-23T00:04:33.591Z,4.41
2019-02-23T00:07:03.882Z,4.32
2019-02-23T00:09:35.128Z,4.35
2019-02-23T00:12:06.206Z,4.28
2019-02-23T00:14:38.175Z,4.24
2019-02-23T00:17:08.458Z,4.13
2019-02-23T00:19:38.882Z,4.05
2019-02-23T00:22:09.855Z,3.91
2019-02-23T00:24:41.147Z,3.85
2019-02-23T00:27:11.334Z,3.91
2019-02-23T00:29:41.670Z,3.92
2019-02-23T00:32:12.394Z,3.90
2019-02-23T00:34:42.693Z,3.88
2019-02-23T00:37:13.033Z,3.78
2019-02-23T00:39:43.302Z,3.68
2019-02-23T00:42:13.878Z,3.62
2019-02-23T00:44:45.161Z,3.51
2019-02-23T00:47:15.847Z,3.49
2019-02-23T00:49:46.394Z,3.43
2019-02-23T00:52:16.716Z,3.49
2019-02-23T00:54:47.243Z,3.35
2019-02-23T00:57:17.573Z,3.43
2019-02-23T00:59:48.138Z,3.36
2019-02-23T01:02:18.740Z,3.32
2019-02-23T01:04:49.673Z,3.40
2019-02-23T01:07:20.005Z,3.37
2019-02-23T01:09:50.638Z,3.34
2019-02-23T01:12:21.383Z,3.34
2019-02-23T01:14:51.740Z,3.22
2019-02-23T01:17:22.424Z,3.20
2019-02-23T01:19:52.785Z,3.21
2019-02-23T01:22:23.775Z,3.12
2019-02-23T01:24:54.535Z,3.07
2019-02-23T01:27:24.852Z,3.11
2019-02-23T01:29:56.130Z,2.97
2019-02-23T01:32:26.789Z,2.99
2019-02-23T01:34:57.421Z,2.93
2019-02-23T01:37:27.776Z,2.81
2019-02-23T01:39:58.044Z,2.74
2019-02-23T01:42:28.608Z,2.61
2019-02-23T01:44:59.238Z,2.63
2019-02-23T01:47:29.479Z,2.60
2019-02-23T01:50:00.256Z,2.61
2019-02-23T01:52:31.190Z,2.65
2019-02-23T01:55:02.312Z,2.71
2019-02-23T01:57:32.647Z,2.78
2019-02-23T02:00:03.574Z,2.72
2019-02-23T02:02:36.153Z,2.61
2019-02-23T02:05:07.839Z,2.50
2019-02-23T02:07:38.451Z,2.44
2019-02-23T02:10:09.411Z,2.40
2019-02-23T02:12:40.210Z,2.37
2019-02-23T02:15:12.718Z,2.49
2019-02-23T02:17:43.324Z,2.51
2019-02-23T02:20:13.957Z,2.48
2019-02-23T02:22:45.082Z,2.40
2019-02-23T02:25:15.701Z,2.53
2019-02-23T02:27:45.939Z,2.44
2019-02-23T02:30:16.740Z,2.45
2019-02-23T02:32:47.002Z,2.32
2019-02-23T02:35:17.286Z,2.21
2019-02-23T02:37:48.282Z,2.12
2019-02-23T02:40:19.219Z,2.08
2019-02-23T02:42:49.965Z,1.99
2019-02-23T02:45:20.255Z,1.97
2019-02-23T02:47:51.385Z,1.94
2019-02-23T02:50:24.491Z,1.89
2019-02-23T02:52:53.619Z,1.84
2019-02-23T02:55:23.863Z,1.78
2019-02-23T02:57:54.136Z,1.68
2019-02-23T03:00:24.644Z,1.66
2019-02-23T03:02:55.532Z,1.59
2019-02-23T03:05:26.146Z,1.55
2019-02-23T03:07:56.490Z,1.50
2019-02-23T03:10:26.776Z,1.43
2019-02-23T03:12:57.337Z,1.45
2019-02-23T03:15:27.958Z,1.39
2019-02-23T03:19:37.098Z,1.25
2019-02-23T03:22:07.702Z,1.24
2019-02-23T03:24:38.578Z,1.33
2019-02-23T03:27:08.824Z,1.51
2019-02-23T03:29:39.102Z,1.55
2019-02-23T03:32:09.448Z,1.53
2019-02-23T03:34:40.794Z,1.48
2019-02-23T03:37:11.421Z,1.35
2019-02-23T03:39:42.361Z,1.28
2019-02-23T03:42:12.639Z,1.24
2019-02-23T03:44:42.920Z,1.23
2019-02-23T03:47:13.182Z,1.16
2019-02-23T03:49:43.766Z,1.11
2019-02-23T03:52:14.028Z,1.14
2019-02-23T03:54:44.608Z,1.08
2019-02-23T03:57:14.899Z,1.14
2019-02-23T03:59:45.489Z,1.11
2019-02-23T04:02:16.095Z,1.11
2019-02-23T04:04:46.650Z,1.09
2019-02-23T04:07:16.899Z,1.12
2019-02-23T04:09:47.162Z,1.11
2019-02-23T04:12:17.773Z,1.08
2019-02-23T04:14:48.455Z,1.08
2019-02-23T04:17:19.066Z,1.05
2019-02-23T04:19:50.134Z,0.96
2019-02-23T04:22:21.390Z,0.96
2019-02-23T04:24:52.103Z,0.94
2019-02-23T04:27:22.384Z,0.91
2019-02-23T04:29:53.173Z,0.84
2019-02-23T04:32:24.104Z,0.80
2019-02-23T04:34:54.932Z,0.79
2019-02-23T04:37:25.244Z,0.77
2019-02-23T04:39:55.822Z,0.78
2019-02-23T04:42:26.724Z,0.70
2019-02-23T04:44:57.343Z,0.69
2019-02-23T04:47:27.555Z,0.77
2019-02-23T04:49:58.194Z,0.82
2019-02-23T04:52:28.701Z,0.76
2019-02-23T04:54:59.044Z,0.72
2019-02-23T04:57:29.345Z,0.72
2019-02-23T05:00:00.624Z,0.70
2019-02-23T05:02:30.818Z,0.68
2019-02-23T05:05:01.393Z,0.59
2019-02-23T05:07:31.677Z,0.54
2019-02-23T05:10:01.890Z,0.64
2019-02-23T05:12:32.550Z,0.59
2019-02-23T05:15:03.216Z,0.54
2019-02-23T05:17:33.803Z,0.54
2019-02-23T05:20:04.772Z,0.58
2019-02-23T05:22:35.397Z,0.68
2019-02-23T05:25:06.604Z,0.69
2019-02-23T05:27:36.800Z,0.80
2019-02-23T05:30:08.421Z,0.84
2019-02-23T05:32:38.725Z,0.97
2019-02-23T05:35:10.459Z,0.99
2019-02-23T05:37:40.672Z,1.09
2019-02-23T05:40:11.182Z,1.11
2019-02-23T05:42:42.096Z,1.11
2019-02-23T05:45:12.707Z,1.16
2019-02-23T05:47:42.982Z,1.12
2019-02-23T05:50:13.266Z,0.95
2019-02-23T05:52:44.214Z,0.90
2019-02-23T05:55:15.834Z,0.85
2019-02-23T05:57:47.734Z,0.84
2019-02-23T06:00:18.365Z,0.86
2019-02-23T06:02:49.304Z,0.87
2019-02-23T06:05:19.693Z,0.90
2019-02-23T06:07:50.868Z,0.93
2019-02-23T06:10:21.870Z,0.90
2019-02-23T06:12:52.106Z,0.93
2019-02-23T06:15:22.663Z,0.84
2019-02-23T06:17:53.371Z,0.70
2019-02-23T06:20:23.932Z,0.66
2019-02-23T06:22:55.231Z,0.56
2019-02-23T06:25:25.519Z,0.49
2019-02-23T06:27:55.819Z,0.35
2019-02-23T06:30:26.454Z,0.14
2019-02-23T06:32:56.798Z,0.04
2019-02-23T06:35:27.438Z,-0.01
2019-02-23T06:37:58.051Z,-0.13
2019-02-23T06:40:29.914Z,-0.15
2019-02-23T06:43:00.561Z,-0.04
2019-02-23T06:45:31.575Z,0.06
2019-02-23T06:48:01.874Z,0.10
2019-02-23T06:50:32.465Z,0.26
2019-02-23T06:53:02.675Z,0.11
2019-02-23T06:55:32.981Z,0.04
2019-02-23T06:58:03.257Z,0.02
2019-02-23T07:00:33.752Z,-0.07
2019-02-23T07:03:03.997Z,-0.07
2019-02-23T07:05:34.272Z,0.16
2019-02-23T07:08:05.010Z,0.16
2019-02-23T07:10:35.955Z,0.26
2019-02-23T07:13:06.216Z,0.30
2019-02-23T07:15:36.494Z,0.30
2019-02-23T07:18:07.134Z,0.29
2019-02-23T07:20:44.105Z,0.23
2019-02-23T07:23:09.936Z,0.20
2019-02-23T07:25:40.246Z,0.26
2019-02-23T07:28:11.035Z,0.27
2019-02-23T07:30:42.586Z,0.31
2019-02-23T07:33:12.815Z,0.35
2019-02-23T07:35:43.402Z,0.39
2019-02-23T07:38:14.363Z,0.47
2019-02-23T07:40:44.649Z,0.57
2019-02-23T07:43:14.930Z,0.67
2019-02-23T07:45:45.829Z,0.78
2019-02-23T07:48:16.233Z,0.94
2019-02-23T07:50:46.465Z,1.05
2019-02-23T07:53:17.290Z,1.17
2019-02-23T07:55:47.659Z,1.30
2019-02-23T07:58:18.464Z,1.32
2019-02-23T08:00:49.114Z,1.36
2019-02-23T08:03:19.704Z,1.36
2019-02-23T08:05:50.263Z,1.43
2019-02-23T08:08:20.621Z,1.50
2019-02-23T08:10:50.908Z,1.61
2019-02-23T08:13:21.169Z,1.79
2019-02-23T08:15:53.104Z,1.95
2019-02-23T08:18:23.631Z,2.16
2019-02-23T08:20:54.361Z,2.42
2019-02-23T08:23:25.167Z,2.55
2019-02-23T08:25:55.745Z,2.65
2019-02-23T08:28:27.798Z,2.85
2019-02-23T08:30:58.428Z,3.17
2019-02-23T08:33:29.031Z,3.40
2019-02-23T08:35:59.899Z,3.67
2019-02-23T08:38:30.494Z,4.10
2019-02-23T08:41:01.060Z,4.10
2019-02-23T08:43:31.756Z,4.23
2019-02-23T08:46:02.011Z,4.38
2019-02-23T08:48:33.549Z,4.20
2019-02-23T08:51:04.200Z,4.28
2019-02-23T08:53:34.831Z,4.69
2019-02-23T08:56:05.486Z,4.80
2019-02-23T08:58:36.851Z,5.04
2019-02-23T09:01:07.447Z,5.08
2019-02-23T09:03:38.833Z,5.11
2019-02-23T09:06:09.823Z,5.02
2019-02-23T09:08:40.571Z,5.52
2019-02-23T09:11:10.815Z,5.54
2019-02-23T09:13:41.154Z,5.97
2019-02-23T09:16:12.705Z,6.20
2019-02-23T09:18:42.957Z,6.09
2019-02-23T09:21:13.933Z,6.09
2019-02-23T09:23:45.353Z,6.46
2019-02-23T09:26:15.699Z,6.75
2019-02-23T09:28:45.974Z,6.88
2019-02-23T09:31:16.686Z,6.70
2019-02-23T09:33:47.433Z,6.85
2019-02-23T09:36:17.752Z,6.91
2019-02-23T09:38:48.033Z,6.91
2019-02-23T09:41:18.375Z,7.32
2019-02-23T09:43:49.343Z,7.39
2019-02-23T09:46:20.551Z,7.27
2019-02-23T09:48:50.875Z,7.73
2019-02-23T09:51:21.266Z,7.90
2019-02-23T09:53:52.650Z,7.27
2019-02-23T09:56:23.199Z,7.35
2019-02-23T09:58:53.846Z,7.63
2019-02-23T10:01:24.310Z,7.82
2019-02-23T10:03:55.295Z,7.89
2019-02-23T10:06:25.751Z,7.76
2019-02-23T10:08:56.354Z,7.95
2019-02-23T10:11:28.417Z,8.52
2019-02-23T10:13:59.047Z,8.74
2019-02-23T10:16:30.712Z,9.45
2019-02-23T10:19:01.849Z,10.16
2019-02-23T10:21:33.200Z,10.05
2019-02-23T10:24:03.840Z,10.48
2019-02-23T10:26:34.443Z,10.90
2019-02-23T10:29:05.396Z,11.86
2019-02-23T10:31:35.725Z,12.54
2019-02-23T10:34:06.280Z,13.03
2019-02-23T10:36:37.197Z,12.98
2019-02-23T10:39:07.599Z,13.16
2019-02-23T10:41:38.885Z,13.65
2019-02-23T10:44:09.770Z,13.41
2019-02-23T10:46:40.544Z,13.79
2019-02-23T10:49:10.834Z,13.50
2019-02-23T10:51:41.171Z,13.41
2019-02-23T10:54:12.304Z,13.67
2019-02-23T10:56:43.273Z,13.65
2019-02-23T10:59:13.833Z,13.80
2019-02-23T11:01:45.466Z,14.72
2019-02-23T11:04:15.749Z,15.41
2019-02-23T11:06:46.660Z,16.10
2019-02-23T11:09:20.293Z,16.46
2019-02-23T11:11:50.741Z,17.16
2019-02-23T11:14:20.999Z,17.39
2019-02-23T11:16:52.741Z,17.47
2019-02-23T11:19:23.340Z,16.93
2019-02-23T11:21:54.308Z,16.34
2019-02-23T11:24:25.676Z,16.40
2019-02-23T11:26:56.587Z,16.53
2019-02-23T11:29:27.559Z,16.88
2019-02-23T11:31:57.851Z,17.34
2019-02-23T11:34:28.150Z,18.43
2019-02-23T11:36:58.812Z,18.09
2019-02-23T11:39:29.101Z,17.57
2019-02-23T11:41:59.452Z,17.52
2019-02-23T11:44:30.397Z,18.55
2019-02-23T11:47:00.725Z,19.22
2019-02-23T11:49:31.626Z,19.03
2019-02-23T11:52:01.835Z,18.98
2019-02-23T11:54:32.414Z,20.27
2019-02-23T11:57:03.164Z,19.34
2019-02-23T11:59:34.089Z,19.43
2019-02-23T12:02:04.385Z,18.98
2019-02-23T12:04:35.490Z,19.12
2019-02-23T12:07:05.757Z,20.63
2019-02-23T12:09:36.308Z,20.13
2019-02-23T12:12:07.350Z,21.10
2019-02-23T12:14:38.666Z,21.62
2019-02-23T12:17:09.566Z,21.18
2019-02-23T12:19:40.474Z,21.24
2019-02-23T12:22:12.608Z,21.41
2019-02-23T12:24:42.864Z,21.78
2019-02-23T12:27:13.711Z,22.79
2019-02-23T12:29:46.381Z,22.49
2019-02-23T12:32:17.084Z,23.28
2019-02-23T12:34:47.636Z,23.16
2019-02-23T12:37:18.327Z,22.70
2019-02-23T12:39:48.995Z,23.99
2019-02-23T12:42:20.070Z,23.53
2019-02-23T12:44:50.410Z,24.71
2019-02-23T12:47:21.349Z,25.61
2019-02-23T12:49:52.012Z,25.52
2019-02-23T12:52:22.328Z,26.13
2019-02-23T12:54:52.593Z,24.92
2019-02-23T12:57:23.203Z,24.65
2019-02-23T12:59:54.107Z,24.54
2019-02-23T13:02:24.426Z,24.94
2019-02-23T13:04:55.024Z,24.21
2019-02-23T13:07:25.701Z,24.28
2019-02-23T13:09:57.027Z,24.71
2019-02-23T13:12:42.810Z,24.41
2019-02-23T13:15:34.588Z,25.79
2019-02-23T13:18:21.547Z,25.95
2019-02-23T13:21:13.701Z,24.06
2019-02-23T13:24:32.969Z,24.90
2019-02-23T13:27:44.705Z,23.20
2019-02-23T13:30:39.113Z,24.56
2019-02-23T13:33:53.551Z,24.92
2019-02-23T13:37:01.907Z,24.05
2019-02-23T13:40:04.685Z,25.40
2019-02-23T13:43:22.323Z,25.26
2019-02-23T13:46:42.512Z,27.06
2019-02-23T13:49:45.272Z,26.75
2019-02-23T13:52:31.340Z,25.95
2019-02-23T13:55:42.748Z,26.63
2019-02-23T13:58:50.900Z,28.25
2019-02-23T14:01:59.525Z,28.25
2019-02-23T14:04:58.481Z,27.90
2019-02-23T14:08:04.419Z,26.93
2019-02-23T14:11:27.862Z,27.27
2019-02-23T14:14:45.053Z,25.29
2019-02-23T14:17:56.014Z,24.42
2019-02-23T14:21:03.535Z,25.75
2019-02-23T14:24:11.929Z,24.25
2019-02-23T14:27:02.731Z,24.73
2019-02-23T14:30:10.353Z,24.70
2019-02-23T14:33:17.557Z,23.09
2019-02-23T14:36:14.086Z,23.63
2019-02-23T14:39:13.017Z,22.91
2019-02-23T14:42:13.063Z,22.56
2019-02-23T14:45:26.099Z,22.78
2019-02-23T14:48:22.170Z,22.79
2019-02-23T14:51:20.700Z,21.02
2019-02-23T14:54:16.382Z,20.28
2019-02-23T14:57:16.391Z,20.47
2019-02-23T15:00:16.125Z,21.20
2019-02-23T15:03:32.715Z,21.69
2019-02-23T15:06:15.581Z,20.86
2019-02-23T15:09:26.790Z,20.79
2019-02-23T15:12:49.741Z,21.54
2019-02-23T15:15:41.720Z,23.50
2019-02-23T15:18:53.610Z,25.45
2019-02-23T15:22:06.650Z,24.96
2019-02-23T15:25:13.434Z,25.62
2019-02-23T15:28:06.791Z,25.97
2019-02-23T15:31:12.897Z,25.90
2019-02-23T15:34:19.527Z,25.16
2019-02-23T15:37:15.199Z,25.13
2019-02-23T15:40:35.803Z,26.06
2019-02-23T15:43:25.464Z,25.97
2019-02-23T15:46:15.244Z,23.60
2019-02-23T15:49:00.273Z,23.35
2019-02-23T15:51:30.989Z,22.87
2019-02-23T15:54:01.960Z,20.33
2019-02-23T15:56:32.685Z,18.46
2019-02-23T15:59:03.722Z,17.21
2019-02-23T16:01:34.373Z,16.15
2019-02-23T16:04:05.525Z,15.65
2019-02-23T16:06:36.115Z,15.13
2019-02-23T16:09:07.744Z,14.78
2019-02-23T16:11:38.511Z,14.40
2019-02-23T16:14:08.813Z,14.25
2019-02-23T16:16:39.435Z,14.01
2019-02-23T16:19:10.378Z,13.89
2019-02-23T16:21:41.555Z,13.89
2019-02-23T16:24:12.395Z,13.81
2019-02-23T16:26:44.052Z,13.67
2019-02-23T16:29:14.315Z,13.39
2019-02-23T16:31:44.517Z,13.19
2019-02-23T16:34:14.993Z,12.93
2019-02-23T16:36:45.885Z,12.61
2019-02-23T16:39:16.067Z,12.34
2019-02-23T16:41:46.597Z,12.16
2019-02-23T16:44:16.941Z,11.99
2019-02-23T16:46:47.879Z,11.81
2019-02-23T16:49:18.132Z,11.68
2019-02-23T16:51:48.488Z,11.53
2019-02-23T16:54:18.674Z,11.55
2019-02-23T16:56:49.279Z,11.30
2019-02-23T16:59:20.289Z,11.22
2019-02-23T17:01:50.849Z,11.08
2019-02-23T17:04:21.119Z,10.90
2019-02-23T17:06:51.338Z,10.75
2019-02-23T17:09:25.318Z,10.49
2019-02-23T17:11:54.195Z,10.27
2019-02-23T17:14:24.395Z,10.17
2019-02-23T17:16:56.696Z,10.32
2019-02-23T17:19:28.758Z,10.49
2019-02-23T17:21:59.696Z,10.40
2019-02-23T17:24:31.733Z,10.35
2019-02-23T17:27:02.356Z,10.37
2019-02-23T17:29:32.927Z,10.26
2019-02-23T17:32:03.132Z,10.06
2019-02-23T17:34:33.423Z,9.84
2019-02-23T17:37:03.662Z,9.65
2019-02-23T17:39:34.731Z,9.56
2019-02-23T17:42:05.566Z,9.51
2019-02-23T17:44:35.856Z,9.43
2019-02-23T17:47:06.428Z,9.22
2019-02-23T17:49:37.069Z,9.08
2019-02-23T17:52:07.345Z,8.95
2019-02-23T17:54:37.554Z,8.96
2019-02-23T17:57:08.116Z,8.94
2019-02-23T17:59:38.676Z,8.95
2019-02-23T18:02:08.957Z,8.87
2019-02-23T18:04:39.168Z,8.69
2019-02-23T18:07:09.736Z,8.54
2019-02-23T18:09:39.930Z,8.50
2019-02-23T18:12:11.270Z,8.38
2019-02-23T18:14:41.844Z,8.34
2019-02-23T18:17:12.468Z,8.22
2019-02-23T18:19:42.778Z,8.13
2019-02-23T18:22:13.444Z,8.04
2019-02-23T18:24:43.726Z,8.18
2019-02-23T18:27:14.007Z,8.05
2019-02-23T18:29:44.389Z,7.93
2019-02-23T18:32:14.618Z,7.83
2019-02-23T18:34:47.169Z,7.79
2019-02-23T18:37:18.278Z,7.71
2019-02-23T18:39:49.181Z,7.69
2019-02-23T18:42:20.281Z,7.67
2019-02-23T18:44:51.523Z,7.56
2019-02-23T18:47:21.741Z,7.59
2019-02-23T18:49:52.532Z,7.54
2019-02-23T18:52:23.265Z,7.40
2019-02-23T18:54:54.038Z,7.32
2019-02-23T18:57:24.424Z,7.27
2019-02-23T18:59:56.695Z,7.15
2019-02-23T19:02:27.942Z,7.07
2019-02-23T19:04:58.638Z,6.94
2019-02-23T19:07:29.355Z,6.83
2019-02-23T19:10:00.322Z,6.82
2019-02-23T19:12:31.501Z,6.82
2019-02-23T19:15:02.654Z,6.86
2019-02-23T19:17:33.600Z,7.04
2019-02-23T19:20:04.094Z,6.95
2019-02-23T19:22:35.159Z,6.84
2019-02-23T19:25:06.056Z,6.68
2019-02-23T19:27:36.727Z,6.57
2019-02-23T19:30:10.513Z,6.83
2019-02-23T19:32:41.483Z,6.81
2019-02-23T19:35:12.241Z,7.24
2019-02-23T19:37:42.899Z,7.31
2019-02-23T19:40:14.082Z,7.40
2019-02-23T19:42:45.341Z,7.62
2019-02-23T19:45:15.690Z,7.80
2019-02-23T19:47:46.762Z,7.63
2019-02-23T19:50:20.502Z,7.60
2019-02-23T19:52:51.159Z,7.74
2019-02-23T19:55:21.759Z,7.72
2019-02-23T19:57:52.671Z,7.56
2019-02-23T20:00:23.597Z,7.75
2019-02-23T20:02:53.954Z,7.82
2019-02-23T20:05:24.633Z,7.63
2019-02-23T20:07:55.347Z,7.51
2019-02-23T20:10:26.585Z,7.43
2019-02-23T20:12:57.603Z,7.41
2019-02-23T20:15:28.246Z,7.41
2019-02-23T20:17:58.597Z,7.32
2019-02-23T20:20:33.440Z,7.24
2019-02-23T20:23:03.748Z,7.15
2019-02-23T20:25:34.774Z,7.10
2019-02-23T20:28:05.162Z,7.13
2019-02-23T20:30:36.173Z,7.06
2019-02-23T20:33:06.859Z,7.04
2019-02-23T20:35:37.067Z,7.00
2019-02-23T20:38:07.434Z,7.02
2019-02-23T20:40:38.345Z,6.92
2019-02-23T20:43:08.994Z,6.94
2019-02-23T20:45:39.543Z,6.85
2019-02-23T20:48:09.863Z,6.81
2019-02-23T20:50:40.607Z,6.77
2019-02-23T20:53:11.567Z,6.71
2019-02-23T20:55:42.251Z,6.56
2019-02-23T20:58:13.292Z,6.42
2019-02-23T21:00:44.860Z,6.51
2019-02-23T21:03:16.500Z,6.44
2019-02-23T21:05:46.930Z,6.45
2019-02-23T21:08:18.616Z,6.42
2019-02-23T21:10:49.315Z,6.43
2019-02-23T21:13:19.683Z,6.28
2019-02-23T21:15:50.498Z,6.23
2019-02-23T21:18:20.731Z,6.18
2019-02-23T21:20:51.746Z,6.14
2019-02-23T21:23:22.128Z,6.08
2019-02-23T21:25:53.018Z,6.05
2019-02-23T21:28:23.749Z,6.08
2019-02-23T21:30:54.055Z,6.04
2019-02-23T21:33:25.646Z,6.08
2019-02-23T21:35:56.385Z,6.00
2019-02-23T21:38:26.653Z,5.98
2019-02-23T21:40:56.907Z,6.04
2019-02-23T21:43:27.650Z,6.03
2019-02-23T21:45:58.273Z,5.91
2019-02-23T21:48:29.414Z,5.92
2019-02-23T21:50:59.652Z,5.87
2019-02-23T21:53:31.298Z,5.87
2019-02-23T21:56:02.772Z,5.81
2019-02-23T21:58:33.420Z,5.82
2019-02-23T22:01:03.772Z,5.74
2019-02-23T22:03:37.720Z,5.73
2019-02-23T22:06:08.960Z,5.53
2019-02-23T22:08:39.896Z,5.51
2019-02-23T22:11:10.131Z,5.48
2019-02-23T22:13:40.750Z,5.34
2019-02-23T22:16:11.590Z,5.23
2019-02-23T22:18:42.197Z,4.89
2019-02-23T22:21:12.541Z,4.89
2019-02-23T22:23:43.637Z,4.76
2019-02-23T22:26:14.250Z,4.66
2019-02-23T22:28:44.805Z,4.51
2019-02-23T22:31:15.701Z,4.41
2019-02-23T22:33:53.387Z,4.33
2019-02-23T22:36:24.878Z,4.26
2019-02-23T22:38:56.663Z,4.15
2019-02-23T22:41:26.936Z,4.04
2019-02-23T22:43:57.169Z,3.89
2019-02-23T22:46:27.760Z,3.70
2019-02-23T22:48:58.378Z,3.59
2019-02-23T22:51:28.935Z,3.54
2019-02-23T22:53:59.149Z,3.49
2019-02-23T22:56:29.778Z,3.51
2019-02-23T22:59:00.050Z,3.46
2019-02-23T23:01:30.973Z,3.29
2019-02-23T23:04:01.823Z,3.17
2019-02-23T23:06:32.110Z,3.04
2019-02-23T23:09:02.885Z,2.98
2019-02-23T23:11:35.089Z,2.89
2019-02-23T23:14:05.721Z,2.83
2019-02-23T23:16:35.980Z,2.79
2019-02-23T23:19:06.568Z,2.80
2019-02-23T23:21:37.230Z,2.72
2019-02-23T23:24:07.484Z,2.57
2019-02-23T23:26:37.794Z,2.47
2019-02-23T23:29:08.139Z,2.39
2019-02-23T23:31:38.739Z,2.46
2019-02-23T23:34:09.835Z,2.61
2019-02-23T23:36:40.116Z,2.56
2019-02-23T23:39:10.845Z,2.56
2019-02-23T23:41:41.885Z,2.45
2019-02-23T23:44:12.819Z,2.33
2019-02-23T23:46:43.502Z,2.29
2019-02-23T23:49:13.708Z,2.22
2019-02-23T23:51:44.956Z,2.05
2019-02-23T23:54:15.244Z,1.95
2019-02-23T23:56:45.876Z,1.79
2019-02-23T23:59:16.615Z,1.72
